Terminal Aerodrome Forecast
Issued by NWS Blacksburg, VA

Home | Current Version | Previous Version | Text Only | Print | Product List | Glossary On
Versions: 1 2 3 4 5 6 7 8 9 10 11 12 13 14 15 16 17 18 19 20 21 22 23
813
FTUS41 KRNK 221135
TAFLYH
TAF
KLYH 221135Z 2212/2312 00000KT P6SM OVC080
     FM221400 00000KT 5SM -RA OVC050
     FM221800 22004KT P6SM OVC035
      TEMPO 2218/2220 2SM -RA OVC025
     FM230100 00000KT P6SM OVC010
     FM230600 00000KT 4SM BR OVC007=

USA.gov is the U.S. government's official web portal to all federal, state and local government web resources and services.